Time;durP1;ratioP1;P1;durP2;ratioP2;P2;SDS_P1;SDS_P2;PMS_P1;PMS_P2;Temp;Humidity;BMP_temperature;BMP_pressure;BME280_temperature;BME280_humidity;BME280_pressure;Samples;Min_cycle;Max_cycle;Signal;HPM_P1;HPM_P2
2022/04/15 00:06:45;;;;;;;6.63;4.07;;;;;;;23.23;35.66;100646.94;20408741;28;97073;-74
2022/04/15 00:16:46;;;;;;;7.30;4.20;;;;;;;23.23;35.64;100646.06;20412634;28;98798;-75
2022/04/15 00:26:46;;;;;;;5.90;4.00;;;;;;;23.19;35.60;100629.63;20406370;28;97897;-75
2022/04/15 00:36:47;;;;;;;8.20;4.30;;;;;;;23.18;35.72;100626.16;20397315;28;97014;-75
2022/04/15 00:46:47;;;;;;;6.47;4.20;;;;;;;23.17;35.89;100611.28;20407107;28;96990;-75
2022/04/15 00:56:52;;;;;;;4.93;3.60;;;;;;;23.15;36.24;100614.97;20406622;28;97524;-74
2022/04/15 01:06:54;;;;;;;8.88;4.28;;;;;;;23.14;36.02;100600.09;20402123;28;97665;-74
2022/04/15 01:16:55;;;;;;;5.53;3.70;;;;;;;23.11;36.00;100592.44;20394037;28;97649;-74
2022/04/15 01:26:58;;;;;;;6.07;4.15;;;;;;;23.11;36.18;100595.06;20404832;28;101356;-74
2022/04/15 01:37:00;;;;;;;6.13;4.07;;;;;;;23.09;36.34;100589.06;20402472;28;99120;-74
2022/04/15 01:47:01;;;;;;;4.93;3.63;;;;;;;23.07;36.29;100578.66;20404073;28;97037;-74
2022/04/15 01:57:03;;;;;;;4.90;3.70;;;;;;;23.05;36.28;100575.28;20404742;28;97001;-75
2022/04/15 02:07:04;;;;;;;6.03;3.90;;;;;;;23.03;36.27;100571.91;20398486;28;97030;-75
2022/04/15 02:17:05;;;;;;;6.40;3.60;;;;;;;23.00;36.39;100583.56;20392676;28;97529;-75
2022/04/15 02:27:05;;;;;;;5.20;3.83;;;;;;;23.01;36.70;100582.63;20395875;28;97402;-75
2022/04/15 02:37:06;;;;;;;6.40;3.67;;;;;;;22.97;36.57;100562.72;20393779;28;98195;-74
2022/04/15 02:47:07;;;;;;;4.82;3.63;;;;;;;22.95;36.62;100550.56;20402744;28;97057;-75
2022/04/15 02:57:08;;;;;;;6.25;3.70;;;;;;;22.94;36.54;100562.97;20402160;28;97360;-75
2022/04/15 03:07:08;;;;;;;5.72;3.80;;;;;;;22.92;36.54;100566.69;20390215;28;98535;-75
2022/04/15 03:17:09;;;;;;;5.50;3.80;;;;;;;22.91;36.63;100571.16;20395006;28;97634;-76
2022/04/15 03:27:10;;;;;;;5.97;3.60;;;;;;;22.90;36.80;100572.09;20479181;28;97715;-76
2022/04/15 03:37:10;;;;;;;4.80;3.47;;;;;;;22.86;36.76;100566.25;20401920;28;97042;-76
2022/04/15 03:47:12;;;;;;;5.00;3.38;;;;;;;22.86;36.93;100557.47;20416684;28;97428;-75
2022/04/15 03:57:13;;;;;;;5.07;3.57;;;;;;;22.83;36.77;100555.91;20400081;28;100079;-76
2022/04/15 04:07:15;;;;;;;5.18;3.45;;;;;;;22.83;36.92;100560.38;20392505;28;97184;-76
2022/04/15 04:17:15;;;;;;;5.70;3.77;;;;;;;22.82;37.05;100546.31;20402773;28;96937;-76
2022/04/15 04:27:16;;;;;;;4.05;3.20;;;;;;;22.81;36.92;100549.09;20400097;28;101701;-76
2022/04/15 04:37:16;;;;;;;4.78;3.47;;;;;;;22.80;37.08;100552.69;20406084;28;97513;-76
2022/04/15 04:47:20;;;;;;;4.03;3.30;;;;;;;22.78;37.08;100563.38;20406829;28;97685;-75
2022/04/15 04:57:21;;;;;;;6.13;3.60;;;;;;;22.77;37.28;100563.50;20400543;28;98604;-75
2022/04/15 05:07:22;;;;;;;4.70;3.57;;;;;;;22.77;37.33;100579.34;20401376;28;97005;-76
2022/04/15 05:17:22;;;;;;;4.45;3.40;;;;;;;22.75;37.38;100582.09;20393190;28;97513;-74
2022/04/15 05:27:23;;;;;;;7.47;3.35;;;;;;;22.76;37.31;100581.13;20359870;28;97544;-75
2022/04/15 05:37:23;;;;;;;3.78;3.33;;;;;;;22.77;37.66;100587.28;20393765;28;97016;-76
2022/04/15 05:47:24;;;;;;;4.20;3.45;;;;;;;22.76;37.38;100590.88;20404514;28;97239;-76
2022/04/15 05:57:24;;;;;;;4.50;3.38;;;;;;;22.76;37.30;100572.38;20355477;28;97683;-75
2022/04/15 06:07:25;;;;;;;4.30;3.13;;;;;;;22.78;37.73;100566.00;20377690;28;97478;-75
2022/04/15 06:17:25;;;;;;;6.15;3.58;;;;;;;22.81;37.88;100578.13;20389782;28;99251;-76
2022/04/15 06:27:26;;;;;;;4.43;3.50;;;;;;;22.83;38.09;100590.22;20389018;28;97728;-76
2022/04/15 06:37:26;;;;;;;35.95;3.95;;;;;;;22.85;38.20;100593.59;20404282;28;97280;-75
2022/04/15 06:47:27;;;;;;;5.70;3.38;;;;;;;22.86;38.17;100573.31;20407005;28;96912;-77
2022/04/15 06:57:27;;;;;;;4.25;3.40;;;;;;;22.88;38.44;100573.19;20398023;28;98008;-77
2022/04/15 07:07:28;;;;;;;4.88;3.13;;;;;;;22.92;38.32;100566.69;20397427;28;97200;-76
2022/04/15 07:17:28;;;;;;;8.23;3.70;;;;;;;22.94;38.02;100577.97;20385836;28;98231;-76
2022/04/15 07:27:30;;;;;;;5.87;3.57;;;;;;;22.94;38.22;100570.88;20384798;28;97094;-76
2022/04/15 07:37:30;;;;;;;5.75;3.67;;;;;;;22.95;38.72;100575.19;20369503;28;98965;-76
2022/04/15 07:47:31;;;;;;;7.57;3.92;;;;;;;22.99;38.77;100589.81;20384155;28;97296;-76
2022/04/15 07:57:33;;;;;;;8.35;4.18;;;;;;;23.01;38.07;100598.47;20395295;28;96939;-76
2022/04/15 08:07:34;;;;;;;6.97;4.10;;;;;;;23.01;39.09;100606.38;20390122;28;97510;-76
2022/04/15 08:17:35;;;;;;;5.85;3.55;;;;;;;23.05;39.07;100601.69;20387562;28;96868;-76
2022/04/15 08:27:35;;;;;;;4.65;3.45;;;;;;;23.05;38.74;100606.16;20394404;28;97658;-76
2022/04/15 08:37:36;;;;;;;5.63;3.40;;;;;;;23.07;39.17;100601.56;20401963;28;97421;-76
2022/04/15 08:47:37;;;;;;;4.10;3.33;;;;;;;23.09;39.04;100604.91;20381554;28;97028;-75
2022/04/15 08:57:38;;;;;;;6.35;3.53;;;;;;;23.11;39.61;100605.63;20392082;28;97624;-76
2022/04/15 09:07:39;;;;;;;4.28;3.30;;;;;;;23.11;39.74;100598.53;20398772;28;97303;-76
2022/04/15 09:17:47;;;;;;;5.50;3.47;;;;;;;23.13;39.27;100593.13;20397515;28;97473;-76
2022/04/15 09:27:47;;;;;;;5.80;3.97;;;;;;;23.17;39.85;100581.38;20400167;28;96850;-76
2022/04/15 09:37:51;;;;;;;5.30;3.55;;;;;;;23.18;39.85;100580.44;20401272;28;97316;-76
2022/04/15 09:48:00;;;;;;;5.13;3.97;;;;;;;23.21;40.08;100584.63;20400658;28;97302;-76
2022/04/15 09:58:07;;;;;;;7.03;4.75;;;;;;;23.21;40.14;100579.34;20388219;28;98346;-77
2022/04/15 10:08:10;;;;;;;8.07;4.10;;;;;;;23.21;39.44;100574.06;20387708;28;99626;-77
2022/04/15 10:18:11;;;;;;;;;;;;;;;23.23;39.06;100553.59;20404814;28;97316;-77
2022/04/15 10:28:17;;;;;;;11.63;4.07;;;;;;;23.24;39.25;100542.94;20395417;28;96993;-76
2022/04/15 10:38:17;;;;;;;6.35;3.53;;;;;;;23.27;39.53;100562.97;20394490;28;96989;-76
2022/04/15 10:48:32;;;;;;;6.10;3.67;;;;;;;23.29;39.92;100564.50;20408971;28;96981;-76
2022/04/15 11:01:13;;;;;;;19.75;5.35;;;;;;;23.37;40.84;100568.31;20469490;28;98433;-74
2022/04/15 11:09:15;;;;;;;7.38;4.20;;;;;;;23.37;41.26;100570.97;20468840;28;100917;-77
2022/04/15 11:19:23;;;;;;;6.35;4.00;;;;;;;23.37;41.16;100571.78;20472110;28;97430;-78
2022/04/15 11:29:33;;;;;;;5.40;3.67;;;;;;;23.32;36.92;100566.88;20472228;28;97328;-78
2022/04/15 11:39:37;;;;;;;5.03;3.33;;;;;;;23.29;35.57;100566.28;20467129;28;99011;-78
2022/04/15 11:49:41;;;;;;;4.88;3.33;;;;;;;23.24;33.79;100566.72;20473232;28;98618;-78
2022/04/15 11:59:46;;;;;;;7.07;3.40;;;;;;;23.24;34.02;100577.28;20482130;28;97770;-76
2022/04/15 12:09:48;;;;;;;9.20;3.38;;;;;;;23.26;34.88;100577.13;20483387;28;97208;-77
2022/04/15 12:19:49;;;;;;;11.50;4.00;;;;;;;23.25;35.28;100576.28;20492851;28;96902;-77
2022/04/15 12:29:54;;;;;;;6.15;3.22;;;;;;;23.25;36.45;100588.66;20491586;28;97193;-78
2022/04/15 12:39:56;;;;;;;4.78;3.15;;;;;;;23.22;36.80;100567.78;20485680;28;98219;-77
2022/04/15 12:50:29;;;;;;;6.50;3.27;;;;;;;23.20;37.18;100554.69;20496969;28;96894;-77
2022/04/15 13:00:30;;;;;;;5.18;3.15;;;;;;;23.20;37.31;100572.38;20481568;28;97196;-77
2022/04/15 13:10:31;;;;;;;3.95;2.95;;;;;;;23.18;37.92;100560.13;20497138;28;97011;-78
2022/04/15 13:20:32;;;;;;;4.80;2.97;;;;;;;23.18;38.08;100551.38;20492091;28;96870;-78
2022/04/15 13:30:32;;;;;;;6.47;3.03;;;;;;;23.18;38.00;100559.28;20476545;28;101182;-78
2022/04/15 13:40:33;;;;;;;5.82;2.50;;;;;;;23.21;39.10;100542.34;20433721;28;97823;-78
2022/04/15 13:50:34;;;;;;;8.80;2.73;;;;;;;23.25;39.31;100543.75;20455532;28;98162;-79
2022/04/15 14:00:34;;;;;;;3.92;2.50;;;;;;;23.27;39.99;100544.47;20478126;28;97743;-81
2022/04/15 14:10:35;;;;;;;4.28;2.50;;;;;;;23.27;40.15;100540.00;20482620;28;97117;-76
2022/04/15 14:20:35;;;;;;;7.93;2.70;;;;;;;23.28;40.19;100533.78;20448293;28;97193;-75
2022/04/15 14:30:36;;;;;;;7.93;2.83;;;;;;;23.28;40.29;100525.84;20468794;28;97156;-75
2022/04/15 14:40:39;;;;;;;10.85;3.00;;;;;;;23.30;40.47;100523.91;20462128;28;99943;-77
2022/04/15 14:50:41;;;;;;;8.30;2.75;;;;;;;23.34;40.76;100537.72;20466955;28;97221;-77
2022/04/15 15:00:41;;;;;;;9.77;2.70;;;;;;;23.37;40.64;100544.53;20444855;28;97668;-78
2022/04/15 15:10:42;;;;;;;11.07;2.83;;;;;;;23.44;41.36;100540.41;20447219;28;100580;-78
2022/04/15 15:20:43;;;;;;;7.50;3.17;;;;;;;23.48;41.70;100524.13;20445138;28;99378;-77
2022/04/15 15:30:46;;;;;;;10.05;3.08;;;;;;;23.56;42.10;100514.72;20458821;28;97309;-76
2022/04/15 15:40:47;;;;;;;6.97;3.03;;;;;;;23.67;41.45;100498.78;20436308;28;97582;-77
2022/04/15 15:50:50;;;;;;;8.35;3.00;;;;;;;23.76;42.83;100489.22;20441707;28;97689;-78
2022/04/15 16:00:50;;;;;;;9.38;3.00;;;;;;;23.82;43.86;100481.56;20439693;28;99244;-76
2022/04/15 16:10:51;;;;;;;11.13;3.63;;;;;;;23.91;44.84;100463.25;20429709;28;98518;-77
2022/04/15 16:20:51;;;;;;;6.35;3.22;;;;;;;23.95;45.23;100462.88;20429206;28;103777;-76
2022/04/15 16:30:52;;;;;;;10.02;3.70;;;;;;;24.04;45.52;100449.81;20442290;28;97028;-76
2022/04/15 16:40:55;;;;;;;7.32;3.65;;;;;;;24.08;45.37;100451.19;20451520;28;101886;-76
2022/04/15 16:50:57;;;;;;;10.07;4.07;;;;;;;24.16;46.39;100442.56;20457843;28;98444;-76
2022/04/15 17:00:58;;;;;;;7.97;4.72;;;;;;;24.19;46.91;100440.47;20438429;28;97811;-76
2022/04/15 17:11:00;;;;;;;8.88;5.60;;;;;;;24.24;47.36;100425.06;20450656;28;98094;-76
2022/04/15 17:21:02;;;;;;;16.23;5.90;;;;;;;24.27;47.41;100421.28;20420520;28;101359;-76
2022/04/15 17:31:03;;;;;;;11.73;5.00;;;;;;;24.30;47.19;100428.94;20450934;28;97183;-77
2022/04/15 17:41:04;;;;;;;7.87;4.67;;;;;;;24.26;46.74;100440.78;20450311;28;97563;-79
2022/04/15 17:51:04;;;;;;;9.05;4.30;;;;;;;24.24;46.49;100450.66;20448830;28;98447;-78
2022/04/15 18:01:05;;;;;;;8.57;4.03;;;;;;;24.22;46.37;100468.50;20452909;28;97914;-79
2022/04/15 18:11:05;;;;;;;6.53;3.78;;;;;;;24.18;45.93;100472.38;20436942;28;97975;-79
2022/04/15 18:21:07;;;;;;;8.05;3.65;;;;;;;24.15;46.30;100481.44;20437292;28;100307;-77
2022/04/15 18:31:08;;;;;;;;;;;;;;;24.13;46.04;100494.81;20424366;28;97689;-77
2022/04/15 18:41:09;;;;;;;7.57;3.20;;;;;;;24.10;45.46;100495.06;20454847;28;101179;-79
2022/04/15 19:01:28;;;;;;;8.25;3.25;;;;;;;24.04;45.00;100511.47;20427122;28;97873;-84
2022/04/15 19:11:29;;;;;;;8.18;3.35;;;;;;;24.00;44.95;100509.22;20456283;28;100864;-83
2022/04/15 19:21:30;;;;;;;7.85;3.13;;;;;;;23.95;45.16;100521.06;20450904;28;97943;-79
2022/04/15 19:31:32;;;;;;;8.05;3.25;;;;;;;23.85;45.09;100512.19;20443551;28;98351;-77
2022/04/15 19:41:33;;;;;;;12.63;3.10;;;;;;;23.83;44.75;100514.16;20442954;28;97497;-77
2022/04/15 19:51:34;;;;;;;5.97;3.43;;;;;;;23.80;44.95;100509.13;20447617;28;97498;-76
2022/04/15 20:01:34;;;;;;;6.47;3.33;;;;;;;23.76;45.56;100499.78;20447095;28;100916;-76
2022/04/15 20:11:35;;;;;;;6.18;3.58;;;;;;;23.73;45.39;100507.97;20452803;28;97007;-76
2022/04/15 20:21:36;;;;;;;9.85;3.70;;;;;;;23.69;45.47;100509.22;20474002;28;99056;-77
2022/04/15 20:31:38;;;;;;;6.20;3.60;;;;;;;23.66;45.72;100507.69;20449883;28;98200;-77
2022/04/15 20:41:38;;;;;;;5.77;3.53;;;;;;;23.64;45.62;100521.03;20466939;28;97800;-77
2022/04/15 20:51:39;;;;;;;6.13;3.20;;;;;;;23.60;46.22;100521.44;20461318;28;97375;-77
2022/04/15 21:01:40;;;;;;;6.82;3.70;;;;;;;23.58;45.58;100529.50;20456930;28;97412;-76
2022/04/15 21:11:41;;;;;;;5.40;3.80;;;;;;;23.56;45.64;100539.38;20451676;28;99459;-77
2022/04/15 21:21:42;;;;;;;4.22;3.65;;;;;;;23.53;45.61;100538.78;20446681;28;97562;-77
2022/04/15 21:31:43;;;;;;;5.30;3.40;;;;;;;23.50;45.63;100534.59;20449195;28;97428;-77
2022/04/15 21:41:44;;;;;;;6.67;3.60;;;;;;;23.48;45.76;100541.81;20452326;28;99752;-77
2022/04/15 22:02:09;;;;;;;6.95;3.40;;;;;;;23.44;46.06;100561.56;20460737;28;97713;-77
2022/04/15 22:12:12;;;;;;;5.93;3.58;;;;;;;23.41;45.60;100554.72;20457203;28;97741;-78
2022/04/15 22:22:13;;;;;;;5.20;3.33;;;;;;;23.37;45.59;100560.38;20453734;28;101562;-76
2022/04/15 22:32:14;;;;;;;4.33;3.03;;;;;;;23.35;45.37;100576.34;20440928;28;97818;-77
2022/04/15 22:42:14;;;;;;;4.97;3.50;;;;;;;23.32;45.33;100580.09;20439002;28;99655;-77
2022/04/15 22:52:15;;;;;;;4.25;3.17;;;;;;;23.31;45.31;100578.44;20454607;28;97041;-76
2022/04/15 23:02:16;;;;;;;4.63;3.20;;;;;;;23.27;45.35;100560.31;20456863;28;99635;-76
2022/04/15 23:12:16;;;;;;;3.90;3.00;;;;;;;23.25;45.02;100559.59;20462718;28;97579;-77
2022/04/15 23:22:17;;;;;;;5.18;3.10;;;;;;;23.22;45.24;100552.78;20451113;28;97043;-77
2022/04/15 23:32:19;;;;;;;3.90;3.00;;;;;;;23.23;45.00;100558.88;20453489;28;101387;-77
2022/04/15 23:42:19;;;;;;;4.70;3.07;;;;;;;23.19;45.15;100560.94;20433721;28;101612;-77
2022/04/15 23:52:20;;;;;;;4.28;3.22;;;;;;;23.18;44.99;100556.66;20461991;28;100075;-76
